sensor_id;sensor_type;location;lat;lon;timestamp;pressure;altitude;pressure_sealevel;temperature;humidity
76660;BME280;65579;45.534;6.212;2023-03-11T00:01:34;97585.46;;;7.24;53.19
76660;BME280;65579;45.534;6.212;2023-03-11T00:03:59;97587.13;;;7.20;54.13
76660;BME280;65579;45.534;6.212;2023-03-11T00:06:25;97583.50;;;7.14;54.83
76660;BME280;65579;45.534;6.212;2023-03-11T00:08:50;97582.12;;;6.52;56.01
76660;BME280;65579;45.534;6.212;2023-03-11T00:11:15;97577.84;;;6.48;56.93
76660;BME280;65579;45.534;6.212;2023-03-11T00:13:41;97564.18;;;6.32;55.51
76660;BME280;65579;45.534;6.212;2023-03-11T00:16:06;97554.37;;;7.38;53.87
76660;BME280;65579;45.534;6.212;2023-03-11T00:18:31;97543.07;;;6.75;55.52
76660;BME280;65579;45.534;6.212;2023-03-11T00:20:58;97541.62;;;6.60;56.03
76660;BME280;65579;45.534;6.212;2023-03-11T00:23:23;97547.14;;;5.74;58.21
76660;BME280;65579;45.534;6.212;2023-03-11T00:25:48;97546.38;;;5.50;59.95
76660;BME280;65579;45.534;6.212;2023-03-11T00:28:14;97540.12;;;5.20;60.62
76660;BME280;65579;45.534;6.212;2023-03-11T00:30:40;97536.92;;;5.31;59.70
76660;BME280;65579;45.534;6.212;2023-03-11T00:33:04;97536.53;;;5.07;60.97
76660;BME280;65579;45.534;6.212;2023-03-11T00:35:31;97534.53;;;5.22;62.35
76660;BME280;65579;45.534;6.212;2023-03-11T00:37:57;97531.08;;;4.84;60.67
76660;BME280;65579;45.534;6.212;2023-03-11T00:40:22;97533.98;;;5.49;60.10
76660;BME280;65579;45.534;6.212;2023-03-11T00:42:46;97542.46;;;5.84;58.13
76660;BME280;65579;45.534;6.212;2023-03-11T00:45:12;97550.17;;;5.74;58.05
76660;BME280;65579;45.534;6.212;2023-03-11T00:47:37;97541.13;;;5.81;59.28
76660;BME280;65579;45.534;6.212;2023-03-11T00:50:03;97534.20;;;5.96;58.90
76660;BME280;65579;45.534;6.212;2023-03-11T00:52:28;97532.51;;;5.51;59.94
76660;BME280;65579;45.534;6.212;2023-03-11T00:54:53;97530.24;;;5.16;60.97
76660;BME280;65579;45.534;6.212;2023-03-11T00:57:19;97532.50;;;4.81;62.21
76660;BME280;65579;45.534;6.212;2023-03-11T00:59:44;97522.85;;;4.53;63.25
76660;BME280;65579;45.534;6.212;2023-03-11T01:02:10;97520.89;;;4.88;61.58
76660;BME280;65579;45.534;6.212;2023-03-11T01:04:35;97514.21;;;5.19;61.08
76660;BME280;65579;45.534;6.212;2023-03-11T01:07:00;97505.53;;;4.75;62.19
76660;BME280;65579;45.534;6.212;2023-03-11T01:09:26;97504.36;;;4.96;61.18
76660;BME280;65579;45.534;6.212;2023-03-11T01:11:51;97502.45;;;4.43;61.53
76660;BME280;65579;45.534;6.212;2023-03-11T01:14:17;97504.07;;;4.75;61.20
76660;BME280;65579;45.534;6.212;2023-03-11T01:16:43;97510.83;;;5.03;59.64
76660;BME280;65579;45.534;6.212;2023-03-11T01:19:08;97504.56;;;5.36;60.60
76660;BME280;65579;45.534;6.212;2023-03-11T01:21:33;97495.01;;;4.99;59.85
76660;BME280;65579;45.534;6.212;2023-03-11T01:23:59;97489.16;;;5.06;59.57
76660;BME280;65579;45.534;6.212;2023-03-11T01:26:24;97475.01;;;5.39;58.41
76660;BME280;65579;45.534;6.212;2023-03-11T01:28:49;97468.86;;;5.75;57.27
76660;BME280;65579;45.534;6.212;2023-03-11T01:31:15;97470.35;;;5.32;60.18
76660;BME280;65579;45.534;6.212;2023-03-11T01:33:40;97468.11;;;4.83;59.03
76660;BME280;65579;45.534;6.212;2023-03-11T01:36:07;97471.40;;;5.03;59.46
76660;BME280;65579;45.534;6.212;2023-03-11T01:38:31;97461.16;;;4.52;61.79
76660;BME280;65579;45.534;6.212;2023-03-11T01:40:57;97446.89;;;3.98;63.81
76660;BME280;65579;45.534;6.212;2023-03-11T01:43:38;97442.44;;;3.94;64.55
76660;BME280;65579;45.534;6.212;2023-03-11T01:48:13;97435.70;;;4.17;63.14
76660;BME280;65579;45.534;6.212;2023-03-11T01:50:43;97435.31;;;3.83;62.72
76660;BME280;65579;45.534;6.212;2023-03-11T01:53:04;97444.77;;;3.93;62.85
76660;BME280;65579;45.534;6.212;2023-03-11T01:55:30;97438.05;;;4.08;62.74
76660;BME280;65579;45.534;6.212;2023-03-11T01:57:55;97423.58;;;4.64;60.41
76660;BME280;65579;45.534;6.212;2023-03-11T02:00:21;97415.01;;;4.98;59.83
76660;BME280;65579;45.534;6.212;2023-03-11T02:02:49;97406.70;;;5.02;59.55
76660;BME280;65579;45.534;6.212;2023-03-11T02:05:11;97409.98;;;5.34;57.26
76660;BME280;65579;45.534;6.212;2023-03-11T02:07:37;97418.49;;;5.24;58.98
76660;BME280;65579;45.534;6.212;2023-03-11T02:10:02;97411.94;;;4.60;61.57
76660;BME280;65579;45.534;6.212;2023-03-11T02:12:30;97406.27;;;4.55;61.34
76660;BME280;65579;45.534;6.212;2023-03-11T02:14:53;97398.75;;;4.66;60.15
76660;BME280;65579;45.534;6.212;2023-03-11T02:17:19;97389.84;;;4.67;59.76
76660;BME280;65579;45.534;6.212;2023-03-11T02:19:56;97377.63;;;4.88;59.40
76660;BME280;65579;45.534;6.212;2023-03-11T02:22:10;97369.32;;;4.94;59.38
76660;BME280;65579;45.534;6.212;2023-03-11T02:24:40;97366.81;;;4.20;59.93
76660;BME280;65579;45.534;6.212;2023-03-11T02:27:02;97357.41;;;5.65;57.44
76660;BME280;65579;45.534;6.212;2023-03-11T02:29:27;97356.73;;;5.72;55.77
76660;BME280;65579;45.534;6.212;2023-03-11T02:31:52;97341.38;;;5.33;56.32
76660;BME280;65579;45.534;6.212;2023-03-11T02:34:20;97328.41;;;6.50;54.02
76660;BME280;65579;45.534;6.212;2023-03-11T02:36:42;97339.09;;;6.03;55.07
76660;BME280;65579;45.534;6.212;2023-03-11T02:39:08;97333.37;;;4.99;57.46
76660;BME280;65579;45.534;6.212;2023-03-11T02:41:37;97329.08;;;4.55;59.02
76660;BME280;65579;45.534;6.212;2023-03-11T02:43:59;97327.71;;;5.11;57.77
76660;BME280;65579;45.534;6.212;2023-03-11T02:46:25;97325.85;;;4.91;57.42
76660;BME280;65579;45.534;6.212;2023-03-11T02:48:50;97323.79;;;5.20;56.26
76660;BME280;65579;45.534;6.212;2023-03-11T02:51:15;97314.31;;;5.02;58.03
76660;BME280;65579;45.534;6.212;2023-03-11T02:53:46;97319.39;;;5.30;56.10
76660;BME280;65579;45.534;6.212;2023-03-11T02:56:06;97326.53;;;4.38;58.21
76660;BME280;65579;45.534;6.212;2023-03-11T02:58:31;97324.70;;;4.90;58.21
76660;BME280;65579;45.534;6.212;2023-03-11T03:00:57;97326.27;;;5.60;56.25
76660;BME280;65579;45.534;6.212;2023-03-11T03:03:22;97327.53;;;5.69;53.88
76660;BME280;65579;45.534;6.212;2023-03-11T03:05:48;97332.57;;;6.08;53.25
76660;BME280;65579;45.534;6.212;2023-03-11T03:08:13;97329.30;;;6.12;53.72
76660;BME280;65579;45.534;6.212;2023-03-11T03:10:39;97336.54;;;5.78;54.98
76660;BME280;65579;45.534;6.212;2023-03-11T03:13:04;97324.55;;;5.41;57.45
76660;BME280;65579;45.534;6.212;2023-03-11T03:15:30;97316.68;;;5.44;57.63
76660;BME280;65579;45.534;6.212;2023-03-11T03:17:55;97323.21;;;5.36;57.14
76660;BME280;65579;45.534;6.212;2023-03-11T03:20:21;97319.46;;;5.09;56.34
76660;BME280;65579;45.534;6.212;2023-03-11T03:22:47;97310.67;;;5.52;54.99
76660;BME280;65579;45.534;6.212;2023-03-11T03:25:11;97308.77;;;4.57;58.44
76660;BME280;65579;45.534;6.212;2023-03-11T03:27:37;97310.11;;;4.51;57.87
76660;BME280;65579;45.534;6.212;2023-03-11T03:30:04;97317.85;;;5.37;56.75
76660;BME280;65579;45.534;6.212;2023-03-11T03:32:28;97309.87;;;4.28;58.36
76660;BME280;65579;45.534;6.212;2023-03-11T03:34:53;97305.41;;;4.79;57.80
76660;BME280;65579;45.534;6.212;2023-03-11T03:37:19;97296.54;;;5.53;54.96
76660;BME280;65579;45.534;6.212;2023-03-11T03:39:44;97283.63;;;5.13;56.25
76660;BME280;65579;45.534;6.212;2023-03-11T03:42:10;97274.12;;;4.76;57.81
76660;BME280;65579;45.534;6.212;2023-03-11T03:44:35;97265.35;;;4.58;58.58
76660;BME280;65579;45.534;6.212;2023-03-11T03:47:02;97274.66;;;5.16;56.97
76660;BME280;65579;45.534;6.212;2023-03-11T03:49:26;97287.88;;;5.02;57.29
76660;BME280;65579;45.534;6.212;2023-03-11T03:51:52;97291.12;;;4.32;58.98
76660;BME280;65579;45.534;6.212;2023-03-11T03:54:17;97274.78;;;4.83;58.07
76660;BME280;65579;45.534;6.212;2023-03-11T03:56:43;97252.22;;;5.37;56.18
76660;BME280;65579;45.534;6.212;2023-03-11T03:59:08;97254.17;;;5.85;54.28
76660;BME280;65579;45.534;6.212;2023-03-11T04:01:34;97269.55;;;5.66;53.69
76660;BME280;65579;45.534;6.212;2023-03-11T04:03:59;97277.01;;;5.47;54.42
76660;BME280;65579;45.534;6.212;2023-03-11T04:06:26;97272.86;;;5.92;55.24
76660;BME280;65579;45.534;6.212;2023-03-11T04:08:51;97275.37;;;5.70;54.46
76660;BME280;65579;45.534;6.212;2023-03-11T04:11:15;97287.92;;;5.99;53.37
76660;BME280;65579;45.534;6.212;2023-03-11T04:13:41;97265.58;;;5.55;53.99
76660;BME280;65579;45.534;6.212;2023-03-11T04:16:07;97261.81;;;6.27;53.85
76660;BME280;65579;45.534;6.212;2023-03-11T04:18:32;97264.77;;;6.42;52.67
76660;BME280;65579;45.534;6.212;2023-03-11T04:20:57;97252.67;;;6.45;52.55
76660;BME280;65579;45.534;6.212;2023-03-11T04:23:23;97242.61;;;6.32;52.58
76660;BME280;65579;45.534;6.212;2023-03-11T04:25:48;97247.30;;;6.17;52.77
76660;BME280;65579;45.534;6.212;2023-03-11T04:28:13;97226.59;;;6.40;52.41
76660;BME280;65579;45.534;6.212;2023-03-11T04:30:40;97233.77;;;5.77;53.37
76660;BME280;65579;45.534;6.212;2023-03-11T04:33:05;97256.38;;;5.59;53.33
76660;BME280;65579;45.534;6.212;2023-03-11T04:35:30;97240.54;;;5.59;53.86
76660;BME280;65579;45.534;6.212;2023-03-11T04:37:55;97249.39;;;6.15;53.00
76660;BME280;65579;45.534;6.212;2023-03-11T04:40:21;97241.46;;;5.22;54.45
76660;BME280;65579;45.534;6.212;2023-03-11T04:42:46;97241.00;;;5.93;53.85
76660;BME280;65579;45.534;6.212;2023-03-11T04:45:12;97253.28;;;4.82;54.97
76660;BME280;65579;45.534;6.212;2023-03-11T04:47:37;97236.49;;;5.55;54.80
76660;BME280;65579;45.534;6.212;2023-03-11T04:50:03;97226.50;;;5.90;53.77
76660;BME280;65579;45.534;6.212;2023-03-11T04:52:28;97247.60;;;5.09;54.95
76660;BME280;65579;45.534;6.212;2023-03-11T04:54:53;97258.38;;;5.52;53.96
76660;BME280;65579;45.534;6.212;2023-03-11T04:57:19;97245.39;;;5.36;54.35
76660;BME280;65579;45.534;6.212;2023-03-11T04:59:44;97258.27;;;5.78;53.57
76660;BME280;65579;45.534;6.212;2023-03-11T05:02:10;97268.85;;;5.86;53.71
76660;BME280;65579;45.534;6.212;2023-03-11T05:04:35;97270.51;;;6.75;52.20
76660;BME280;65579;45.534;6.212;2023-03-11T05:07:00;97283.05;;;6.87;51.14
76660;BME280;65579;45.534;6.212;2023-03-11T05:09:26;97277.38;;;5.95;52.61
76660;BME280;65579;45.534;6.212;2023-03-11T05:11:51;97270.08;;;6.74;52.02
76660;BME280;65579;45.534;6.212;2023-03-11T05:14:17;97266.97;;;6.40;52.40
76660;BME280;65579;45.534;6.212;2023-03-11T05:16:42;97255.95;;;6.01;52.23
76660;BME280;65579;45.534;6.212;2023-03-11T05:19:08;97236.53;;;6.40;51.55
76660;BME280;65579;45.534;6.212;2023-03-11T05:21:33;97216.32;;;5.85;53.95
76660;BME280;65579;45.534;6.212;2023-03-11T05:23:59;97214.63;;;5.21;54.94
76660;BME280;65579;45.534;6.212;2023-03-11T05:26:24;97218.05;;;5.13;55.83
76660;BME280;65579;45.534;6.212;2023-03-11T05:28:50;97237.65;;;4.49;57.23
76660;BME280;65579;45.534;6.212;2023-03-11T05:31:19;97233.07;;;5.18;55.73
76660;BME280;65579;45.534;6.212;2023-03-11T05:33:42;97230.81;;;5.39;54.87
76660;BME280;65579;45.534;6.212;2023-03-11T05:36:09;97234.35;;;5.92;53.64
76660;BME280;65579;45.534;6.212;2023-03-11T05:38:35;97217.31;;;5.61;54.17
76660;BME280;65579;45.534;6.212;2023-03-11T05:40:59;97220.35;;;6.00;53.69
76660;BME280;65579;45.534;6.212;2023-03-11T05:43:26;97234.10;;;5.70;55.12
76660;BME280;65579;45.534;6.212;2023-03-11T05:45:51;97224.36;;;4.56;58.16
76660;BME280;65579;45.534;6.212;2023-03-11T05:48:16;97214.80;;;4.60;58.87
76660;BME280;65579;45.534;6.212;2023-03-11T05:50:42;97236.63;;;4.81;59.00
76660;BME280;65579;45.534;6.212;2023-03-11T05:53:04;97233.38;;;4.10;61.56
76660;BME280;65579;45.534;6.212;2023-03-11T05:55:30;97203.03;;;4.50;62.03
76660;BME280;65579;45.534;6.212;2023-03-11T05:57:55;97222.77;;;4.99;58.22
76660;BME280;65579;45.534;6.212;2023-03-11T06:00:21;97235.43;;;5.36;56.28
76660;BME280;65579;45.534;6.212;2023-03-11T06:02:45;97230.88;;;5.48;54.25
76660;BME280;65579;45.534;6.212;2023-03-11T06:05:11;97223.43;;;5.96;53.78
76660;BME280;65579;45.534;6.212;2023-03-11T06:07:36;97210.31;;;6.10;51.82
76660;BME280;65579;45.534;6.212;2023-03-11T06:10:02;97204.96;;;5.13;55.16
76660;BME280;65579;45.534;6.212;2023-03-11T06:12:27;97210.50;;;5.62;54.21
76660;BME280;65579;45.534;6.212;2023-03-11T06:14:53;97214.33;;;5.30;53.34
76660;BME280;65579;45.534;6.212;2023-03-11T06:17:18;97222.73;;;5.50;54.38
76660;BME280;65579;45.534;6.212;2023-03-11T06:19:43;97232.94;;;5.08;54.65
76660;BME280;65579;45.534;6.212;2023-03-11T06:22:09;97225.03;;;5.68;54.71
76660;BME280;65579;45.534;6.212;2023-03-11T06:24:35;97203.69;;;6.05;52.86
76660;BME280;65579;45.534;6.212;2023-03-11T06:27:00;97202.40;;;5.71;53.81
76660;BME280;65579;45.534;6.212;2023-03-11T06:29:25;97192.91;;;5.90;53.15
76660;BME280;65579;45.534;6.212;2023-03-11T06:31:51;97200.13;;;6.21;51.85
76660;BME280;65579;45.534;6.212;2023-03-11T06:34:16;97219.13;;;6.05;52.48
76660;BME280;65579;45.534;6.212;2023-03-11T06:36:41;97233.91;;;6.12;52.14
76660;BME280;65579;45.534;6.212;2023-03-11T06:39:07;97237.08;;;5.18;54.91
76660;BME280;65579;45.534;6.212;2023-03-11T06:41:33;97243.09;;;5.20;54.99
76660;BME280;65579;45.534;6.212;2023-03-11T06:43:58;97238.67;;;6.25;53.08
76660;BME280;65579;45.534;6.212;2023-03-11T06:46:23;97226.84;;;6.66;52.32
76660;BME280;65579;45.534;6.212;2023-03-11T06:48:49;97231.36;;;6.50;51.76
76660;BME280;65579;45.534;6.212;2023-03-11T06:51:14;97247.41;;;5.76;53.72
76660;BME280;65579;45.534;6.212;2023-03-11T06:53:40;97251.71;;;6.12;52.78
76660;BME280;65579;45.534;6.212;2023-03-11T06:56:07;97274.52;;;6.24;52.60
76660;BME280;65579;45.534;6.212;2023-03-11T06:58:32;97274.02;;;6.23;52.14
76660;BME280;65579;45.534;6.212;2023-03-11T07:01:00;97268.75;;;6.75;52.76
76660;BME280;65579;45.534;6.212;2023-03-11T07:03:21;97276.88;;;6.63;53.00
76660;BME280;65579;45.534;6.212;2023-03-11T07:05:50;97283.08;;;5.52;54.93
76660;BME280;65579;45.534;6.212;2023-03-11T07:08:12;97280.66;;;5.56;55.15
76660;BME280;65579;45.534;6.212;2023-03-11T07:10:37;97271.66;;;6.30;52.81
76660;BME280;65579;45.534;6.212;2023-03-11T07:13:03;97280.79;;;6.35;53.05
76660;BME280;65579;45.534;6.212;2023-03-11T07:15:28;97281.81;;;7.19;51.98
76660;BME280;65579;45.534;6.212;2023-03-11T07:17:54;97295.13;;;6.45;51.57
76660;BME280;65579;45.534;6.212;2023-03-11T07:20:19;97306.18;;;6.19;53.03
76660;BME280;65579;45.534;6.212;2023-03-11T07:22:45;97311.69;;;5.79;54.09
76660;BME280;65579;45.534;6.212;2023-03-11T07:25:10;97308.09;;;6.64;52.71
76660;BME280;65579;45.534;6.212;2023-03-11T07:27:35;97299.84;;;6.28;53.18
76660;BME280;65579;45.534;6.212;2023-03-11T07:30:01;97300.11;;;6.33;53.73
76660;BME280;65579;45.534;6.212;2023-03-11T07:32:26;97302.69;;;5.88;54.28
76660;BME280;65579;45.534;6.212;2023-03-11T07:34:51;97306.61;;;5.72;55.06
76660;BME280;65579;45.534;6.212;2023-03-11T07:37:16;97312.65;;;6.12;54.19
76660;BME280;65579;45.534;6.212;2023-03-11T07:39:42;97323.10;;;6.65;52.36
76660;BME280;65579;45.534;6.212;2023-03-11T07:42:07;97328.88;;;6.97;51.71
76660;BME280;65579;45.534;6.212;2023-03-11T07:44:32;97341.06;;;6.28;53.52
76660;BME280;65579;45.534;6.212;2023-03-11T07:47:01;97339.97;;;6.03;54.32
76660;BME280;65579;45.534;6.212;2023-03-11T07:49:23;97331.71;;;6.58;52.82
76660;BME280;65579;45.534;6.212;2023-03-11T07:51:49;97338.67;;;6.86;51.96
76660;BME280;65579;45.534;6.212;2023-03-11T07:54:14;97337.57;;;6.78;51.82
76660;BME280;65579;45.534;6.212;2023-03-11T07:56:40;97335.90;;;7.19;50.74
76660;BME280;65579;45.534;6.212;2023-03-11T07:59:05;97343.01;;;6.96;51.14
76660;BME280;65579;45.534;6.212;2023-03-11T08:01:32;97337.95;;;7.04;50.97
76660;BME280;65579;45.534;6.212;2023-03-11T08:03:56;97330.63;;;6.97;51.08
76660;BME280;65579;45.534;6.212;2023-03-11T08:06:23;97340.83;;;7.38;50.56
76660;BME280;65579;45.534;6.212;2023-03-11T08:08:47;97339.82;;;6.90;50.88
76660;BME280;65579;45.534;6.212;2023-03-11T08:11:13;97342.61;;;7.03;51.26
76660;BME280;65579;45.534;6.212;2023-03-11T08:13:38;97345.19;;;7.19;50.74
76660;BME280;65579;45.534;6.212;2023-03-11T08:16:03;97349.19;;;7.44;50.12
76660;BME280;65579;45.534;6.212;2023-03-11T08:18:28;97355.57;;;7.18;51.17
76660;BME280;65579;45.534;6.212;2023-03-11T08:20:54;97358.88;;;7.61;49.93
76660;BME280;65579;45.534;6.212;2023-03-11T08:23:19;97361.51;;;8.25;48.95
76660;BME280;65579;45.534;6.212;2023-03-11T08:25:44;97352.00;;;8.16;48.25
76660;BME280;65579;45.534;6.212;2023-03-11T08:28:10;97353.53;;;7.65;50.00
76660;BME280;65579;45.534;6.212;2023-03-11T08:30:35;97360.38;;;6.93;51.33
76660;BME280;65579;45.534;6.212;2023-03-11T08:33:00;97360.70;;;7.14;50.84
76660;BME280;65579;45.534;6.212;2023-03-11T08:35:27;97363.45;;;7.47;50.91
76660;BME280;65579;45.534;6.212;2023-03-11T08:37:51;97368.22;;;8.01;50.06
76660;BME280;65579;45.534;6.212;2023-03-11T08:40:17;97382.11;;;7.43;50.77
76660;BME280;65579;45.534;6.212;2023-03-11T08:42:42;97371.25;;;6.96;51.95
76660;BME280;65579;45.534;6.212;2023-03-11T08:45:08;97378.46;;;8.16;50.46
76660;BME280;65579;45.534;6.212;2023-03-11T08:47:34;97372.82;;;8.33;49.65
76660;BME280;65579;45.534;6.212;2023-03-11T08:49:58;97371.27;;;7.52;50.67
76660;BME280;65579;45.534;6.212;2023-03-11T08:52:24;97378.01;;;7.90;50.63
76660;BME280;65579;45.534;6.212;2023-03-11T08:54:49;97375.30;;;8.26;49.79
76660;BME280;65579;45.534;6.212;2023-03-11T08:57:14;97389.85;;;7.93;49.29
76660;BME280;65579;45.534;6.212;2023-03-11T08:59:40;97384.71;;;9.20;48.47
76660;BME280;65579;45.534;6.212;2023-03-11T09:02:05;97387.62;;;8.83;48.70
76660;BME280;65579;45.534;6.212;2023-03-11T09:04:31;97383.34;;;8.58;48.98
76660;BME280;65579;45.534;6.212;2023-03-11T09:06:56;97393.87;;;8.20;49.53
76660;BME280;65579;45.534;6.212;2023-03-11T09:09:21;97391.59;;;7.94;49.59
76660;BME280;65579;45.534;6.212;2023-03-11T09:11:47;97384.74;;;8.07;49.75
76660;BME280;65579;45.534;6.212;2023-03-11T09:14:12;97387.77;;;8.30;48.72
76660;BME280;65579;45.534;6.212;2023-03-11T09:16:37;97386.73;;;8.53;48.81
76660;BME280;65579;45.534;6.212;2023-03-11T09:19:03;97394.79;;;7.90;50.70
76660;BME280;65579;45.534;6.212;2023-03-11T09:21:28;97398.28;;;6.49;51.45
76660;BME280;65579;45.534;6.212;2023-03-11T09:23:53;97397.09;;;8.00;50.49
76660;BME280;65579;45.534;6.212;2023-03-11T09:26:19;97392.13;;;7.34;53.36
76660;BME280;65579;45.534;6.212;2023-03-11T09:28:44;97397.58;;;6.40;55.63
76660;BME280;65579;45.534;6.212;2023-03-11T09:31:10;97407.09;;;7.20;53.41
76660;BME280;65579;45.534;6.212;2023-03-11T09:33:36;97401.82;;;6.45;55.50
76660;BME280;65579;45.534;6.212;2023-03-11T09:36:00;97404.88;;;7.12;53.20
76660;BME280;65579;45.534;6.212;2023-03-11T09:38:26;97417.97;;;8.37;51.28
76660;BME280;65579;45.534;6.212;2023-03-11T09:40:58;97426.47;;;8.30;51.19
76660;BME280;65579;45.534;6.212;2023-03-11T09:43:24;97418.55;;;8.43;50.15
76660;BME280;65579;45.534;6.212;2023-03-11T09:45:44;97420.63;;;9.05;48.77
76660;BME280;65579;45.534;6.212;2023-03-11T09:48:14;97415.13;;;9.12;48.54
76660;BME280;65579;45.534;6.212;2023-03-11T09:50:34;97407.81;;;9.78;47.40
76660;BME280;65579;45.534;6.212;2023-03-11T09:53:08;97414.43;;;8.59;49.80
76660;BME280;65579;45.534;6.212;2023-03-11T09:55:33;97423.15;;;8.59;49.35
76660;BME280;65579;45.534;6.212;2023-03-11T09:57:49;97424.01;;;8.73;49.11
76660;BME280;65579;45.534;6.212;2023-03-11T10:00:17;97438.44;;;8.56;49.73
76660;BME280;65579;45.534;6.212;2023-03-11T10:02:40;97447.70;;;8.36;49.83
76660;BME280;65579;45.534;6.212;2023-03-11T10:05:13;97444.46;;;8.40;49.89
76660;BME280;65579;45.534;6.212;2023-03-11T10:07:34;97441.95;;;8.87;48.93
76660;BME280;65579;45.534;6.212;2023-03-11T10:09:57;97447.61;;;9.15;48.58
76660;BME280;65579;45.534;6.212;2023-03-11T10:12:31;97450.42;;;8.66;49.04
76660;BME280;65579;45.534;6.212;2023-03-11T10:15:00;97440.18;;;9.52;47.23
76660;BME280;65579;45.534;6.212;2023-03-11T10:17:18;97434.96;;;10.53;46.34
76660;BME280;65579;45.534;6.212;2023-03-11T10:19:45;97436.95;;;9.43;47.26
76660;BME280;65579;45.534;6.212;2023-03-11T10:22:11;97451.58;;;8.93;49.13
76660;BME280;65579;45.534;6.212;2023-03-11T10:24:41;97443.17;;;9.08;48.57
76660;BME280;65579;45.534;6.212;2023-03-11T10:26:59;97454.49;;;8.92;49.40
76660;BME280;65579;45.534;6.212;2023-03-11T10:29:25;97454.21;;;9.24;47.31
76660;BME280;65579;45.534;6.212;2023-03-11T10:31:49;97451.96;;;9.34;48.39
76660;BME280;65579;45.534;6.212;2023-03-11T10:34:14;97447.64;;;9.66;47.01
76660;BME280;65579;45.534;6.212;2023-03-11T10:36:39;97453.23;;;10.14;47.19
76660;BME280;65579;45.534;6.212;2023-03-11T10:39:01;97453.81;;;10.33;46.28
76660;BME280;65579;45.534;6.212;2023-03-11T10:41:31;97447.02;;;10.65;46.28
76660;BME280;65579;45.534;6.212;2023-03-11T10:43:56;97454.44;;;10.34;46.05
76660;BME280;65579;45.534;6.212;2023-03-11T10:46:19;97453.99;;;10.12;47.48
76660;BME280;65579;45.534;6.212;2023-03-11T10:48:41;97444.11;;;9.38;49.13
76660;BME280;65579;45.534;6.212;2023-03-11T10:51:13;97442.92;;;9.71;49.36
76660;BME280;65579;45.534;6.212;2023-03-11T10:53:32;97442.00;;;10.30;46.19
76660;BME280;65579;45.534;6.212;2023-03-11T10:55:58;97450.91;;;9.35;48.20
76660;BME280;65579;45.534;6.212;2023-03-11T10:58:25;97452.55;;;9.31;48.28
76660;BME280;65579;45.534;6.212;2023-03-11T11:01:03;97451.86;;;9.21;48.53
76660;BME280;65579;45.534;6.212;2023-03-11T11:03:20;97447.59;;;9.75;48.21
76660;BME280;65579;45.534;6.212;2023-03-11T11:05:40;97445.03;;;10.18;47.00
76660;BME280;65579;45.534;6.212;2023-03-11T11:08:08;97444.97;;;9.67;48.48
76660;BME280;65579;45.534;6.212;2023-03-11T11:10:31;97442.61;;;9.42;48.50
76660;BME280;65579;45.534;6.212;2023-03-11T11:12:57;97437.57;;;10.16;46.79
76660;BME280;65579;45.534;6.212;2023-03-11T11:15:22;97443.70;;;10.19;47.03
76660;BME280;65579;45.534;6.212;2023-03-11T11:17:47;97449.63;;;9.70;48.82
76660;BME280;65579;45.534;6.212;2023-03-11T11:20:16;97460.18;;;10.12;47.46
76660;BME280;65579;45.534;6.212;2023-03-11T11:22:38;97471.04;;;10.64;46.14
76660;BME280;65579;45.534;6.212;2023-03-11T11:25:22;97470.02;;;9.69;47.52
76660;BME280;65579;45.534;6.212;2023-03-11T11:27:28;97470.45;;;10.25;47.62
76660;BME280;65579;45.534;6.212;2023-03-11T11:30:03;97472.48;;;10.47;46.53
76660;BME280;65579;45.534;6.212;2023-03-11T11:32:23;97465.37;;;10.14;46.87
76660;BME280;65579;45.534;6.212;2023-03-11T11:34:53;97459.25;;;10.74;47.67
76660;BME280;65579;45.534;6.212;2023-03-11T11:37:12;97455.44;;;10.84;47.44
76660;BME280;65579;45.534;6.212;2023-03-11T11:39:42;97452.40;;;10.89;47.15
76660;BME280;65579;45.534;6.212;2023-03-11T11:42:00;97454.42;;;10.31;47.78
76660;BME280;65579;45.534;6.212;2023-03-11T11:44:28;97449.90;;;11.12;45.67
76660;BME280;65579;45.534;6.212;2023-03-11T11:46:56;97457.96;;;10.61;46.77
76660;BME280;65579;45.534;6.212;2023-03-11T11:49:17;97438.09;;;10.87;47.36
76660;BME280;65579;45.534;6.212;2023-03-11T11:51:43;97439.26;;;10.54;48.61
76660;BME280;65579;45.534;6.212;2023-03-11T11:54:14;97443.96;;;10.02;48.96
76660;BME280;65579;45.534;6.212;2023-03-11T11:56:31;97449.31;;;10.20;48.28
76660;BME280;65579;45.534;6.212;2023-03-11T11:58:56;97459.07;;;9.75;48.26
76660;BME280;65579;45.534;6.212;2023-03-11T12:01:33;97450.82;;;10.91;47.66
76660;BME280;65579;45.534;6.212;2023-03-11T12:04:01;97473.79;;;10.20;48.08
76660;BME280;65579;45.534;6.212;2023-03-11T12:06:18;97479.57;;;10.18;47.75
76660;BME280;65579;45.534;6.212;2023-03-11T12:08:44;97462.58;;;10.47;47.60
76660;BME280;65579;45.534;6.212;2023-03-11T12:11:06;97466.43;;;10.52;48.71
76660;BME280;65579;45.534;6.212;2023-03-11T12:13:43;97469.38;;;9.98;48.79
76660;BME280;65579;45.534;6.212;2023-03-11T12:15:58;97453.93;;;10.17;48.74
76660;BME280;65579;45.534;6.212;2023-03-11T12:18:22;97451.31;;;10.37;48.69
76660;BME280;65579;45.534;6.212;2023-03-11T12:20:48;97457.39;;;10.34;47.88
76660;BME280;65579;45.534;6.212;2023-03-11T12:23:17;97459.74;;;10.44;47.32
76660;BME280;65579;45.534;6.212;2023-03-11T12:25:41;97454.18;;;10.43;48.08
76660;BME280;65579;45.534;6.212;2023-03-11T12:30:29;97456.15;;;10.52;48.29
76660;BME280;65579;45.534;6.212;2023-03-11T12:32:56;97448.38;;;10.82;48.42
76660;BME280;65579;45.534;6.212;2023-03-11T12:35:22;97459.37;;;11.14;47.52
76660;BME280;65579;45.534;6.212;2023-03-11T12:37:43;97455.88;;;10.82;47.25
76660;BME280;65579;45.534;6.212;2023-03-11T12:42:38;97440.75;;;10.47;47.89
76660;BME280;65579;45.534;6.212;2023-03-11T12:47:25;97439.89;;;10.75;48.80
76660;BME280;65579;45.534;6.212;2023-03-11T12:49:52;97447.58;;;9.94;49.24
76660;BME280;65579;45.534;6.212;2023-03-11T12:52:19;97448.52;;;9.85;50.89
76660;BME280;65579;45.534;6.212;2023-03-11T12:54:42;97444.83;;;9.38;51.99
76660;BME280;65579;45.534;6.212;2023-03-11T12:57:21;97437.86;;;9.28;51.32
76660;BME280;65579;45.534;6.212;2023-03-11T13:04:30;97422.90;;;9.90;50.86
76660;BME280;65579;45.534;6.212;2023-03-11T13:07:05;97429.37;;;10.26;49.72
76660;BME280;65579;45.534;6.212;2023-03-11T13:09:15;97435.49;;;10.16;51.15
76660;BME280;65579;45.534;6.212;2023-03-11T13:11:43;97436.88;;;10.01;50.68
76660;BME280;65579;45.534;6.212;2023-03-11T13:16:36;97431.55;;;10.54;49.76